createdAt,value
2019-05-18T00:00:41.139Z,86.58
2019-05-18T00:01:41.148Z,86.89
2019-05-18T00:02:41.114Z,87.20
2019-05-18T00:03:41.107Z,87.30
2019-05-18T00:04:41.121Z,87.37
2019-05-18T00:05:41.086Z,87.51
2019-05-18T00:06:41.068Z,87.10
2019-05-18T00:07:41.127Z,87.30
2019-05-18T00:08:41.061Z,87.51
2019-05-18T00:09:41.041Z,86.89
2019-05-18T00:10:41.052Z,87.40
2019-05-18T00:11:41.017Z,87.20
2019-05-18T00:12:41.031Z,87.71
2019-05-18T00:13:41.019Z,87.37
2019-05-18T00:14:40.982Z,87.61
2019-05-18T00:15:40.966Z,87.30
2019-05-18T00:16:40.957Z,87.61
2019-05-18T00:17:40.969Z,87.92
2019-05-18T00:18:40.933Z,87.71
2019-05-18T00:19:40.946Z,87.30
2019-05-18T00:20:40.940Z,87.40
2019-05-18T00:21:40.897Z,88.02
2019-05-18T00:22:40.889Z,87.65
2019-05-18T00:23:40.908Z,87.85
2019-05-18T00:24:40.867Z,87.65
2019-05-18T00:25:40.888Z,87.65
2019-05-18T00:26:40.848Z,87.71
2019-05-18T00:27:40.836Z,88.27
2019-05-18T00:28:40.844Z,87.85
2019-05-18T00:29:40.815Z,87.85
2019-05-18T00:30:40.798Z,88.78
2019-05-18T00:31:40.831Z,88.62
2019-05-18T00:32:40.799Z,88.47
2019-05-18T00:33:40.760Z,88.47
2019-05-18T00:34:40.801Z,88.47
2019-05-18T00:35:40.745Z,88.98
2019-05-18T00:36:40.744Z,88.78
2019-05-18T00:37:40.736Z,89.34
2019-05-18T00:38:40.706Z,89.64
2019-05-18T00:39:40.729Z,89.44
2019-05-18T00:40:40.692Z,89.23
2019-05-18T00:41:40.676Z,89.23
2019-05-18T00:42:40.662Z,89.64
2019-05-18T00:43:40.687Z,89.75
2019-05-18T00:44:40.667Z,89.85
2019-05-18T00:45:40.649Z,89.54
2019-05-18T00:46:40.624Z,89.44
2019-05-18T00:47:42.122Z,89.75
2019-05-18T00:48:40.592Z,89.34
2019-05-18T00:49:40.621Z,89.44
2019-05-18T00:50:40.596Z,89.44
2019-05-18T00:51:40.573Z,89.44
2019-05-18T00:52:40.550Z,89.75
2019-05-18T00:53:40.537Z,89.44
2019-05-18T00:54:40.566Z,89.75
2019-05-18T00:55:40.513Z,89.64
2019-05-18T00:56:40.542Z,89.64
2019-05-18T00:57:40.501Z,89.75
2019-05-18T00:58:40.478Z,89.75
2019-05-18T00:59:40.498Z,89.58
2019-05-18T01:00:40.460Z,89.79
2019-05-18T01:01:40.452Z,89.48
2019-05-18T01:02:40.497Z,89.48
2019-05-18T01:03:40.426Z,89.79
2019-05-18T01:04:40.410Z,89.38
2019-05-18T01:05:40.406Z,89.69
2019-05-18T01:06:40.400Z,89.38
2019-05-18T01:07:40.415Z,90.00
2019-05-18T01:08:40.402Z,90.03
2019-05-18T01:09:40.363Z,89.42
2019-05-18T01:10:40.378Z,89.42
2019-05-18T01:11:40.337Z,89.94
2019-05-18T01:12:40.322Z,89.83
2019-05-18T01:13:40.312Z,90.03
2019-05-18T01:14:40.337Z,89.22
2019-05-18T01:15:40.318Z,90.03
2019-05-18T01:16:40.283Z,89.94
2019-05-18T01:17:40.317Z,90.03
2019-05-18T01:18:40.263Z,89.87
2019-05-18T01:19:40.260Z,89.67
2019-05-18T01:20:40.257Z,90.49
2019-05-18T01:21:40.225Z,90.59
2019-05-18T01:22:40.244Z,91.31
2019-05-18T01:23:40.204Z,91.31
2019-05-18T01:24:40.187Z,91.00
2019-05-18T01:25:40.213Z,91.00
2019-05-18T01:26:40.190Z,91.31
2019-05-18T01:27:40.169Z,91.42
2019-05-18T01:28:40.157Z,91.93
2019-05-18T01:29:40.160Z,92.03
2019-05-18T01:30:40.125Z,91.62
2019-05-18T01:31:40.140Z,91.42
2019-05-18T01:32:40.128Z,91.52
2019-05-18T01:33:40.090Z,91.11
2019-05-18T01:34:40.082Z,91.21
2019-05-18T01:35:40.068Z,91.47
2019-05-18T01:36:40.077Z,91.58
2019-05-18T01:37:40.047Z,91.42
2019-05-18T01:38:40.059Z,91.99
2019-05-18T01:39:40.046Z,91.99
2019-05-18T01:40:40.010Z,92.50
2019-05-18T01:41:40.003Z,92.30
2019-05-18T01:42:39.988Z,92.30
2019-05-18T01:43:40.011Z,92.40
2019-05-18T01:44:39.992Z,92.61
2019-05-18T01:45:39.954Z,92.50
2019-05-18T01:46:39.941Z,92.30
2019-05-18T01:47:39.940Z,92.16
2019-05-18T01:48:39.967Z,92.25
2019-05-18T01:49:39.915Z,92.57
2019-05-18T01:50:39.916Z,92.46
2019-05-18T01:51:39.885Z,92.16
2019-05-18T01:52:39.874Z,91.85
2019-05-18T01:53:39.896Z,92.36
2019-05-18T01:54:39.854Z,92.36
2019-05-18T01:55:39.844Z,92.36
2019-05-18T01:56:39.839Z,92.16
2019-05-18T01:57:39.818Z,92.32
2019-05-18T01:58:39.840Z,92.52
2019-05-18T01:59:39.795Z,92.32
2019-05-18T02:00:39.786Z,92.63
2019-05-18T02:01:39.793Z,93.04
2019-05-18T02:02:39.760Z,92.52
2019-05-18T02:03:39.784Z,92.21
2019-05-18T02:04:39.740Z,92.21
2019-05-18T02:05:39.783Z,92.32
2019-05-18T02:06:39.716Z,92.27
2019-05-18T02:07:39.773Z,92.17
2019-05-18T02:08:39.693Z,91.55
2019-05-18T02:09:39.698Z,91.35
2019-05-18T02:10:39.670Z,92.17
2019-05-18T02:11:39.667Z,91.45
2019-05-18T02:12:39.674Z,91.14
2019-05-18T02:13:39.658Z,91.04
2019-05-18T02:14:39.648Z,91.14
2019-05-18T02:15:39.620Z,91.31
2019-05-18T02:16:39.604Z,91.14
2019-05-18T02:17:39.590Z,90.94
2019-05-18T02:18:39.578Z,90.94
2019-05-18T02:19:39.614Z,90.94
2019-05-18T02:20:39.574Z,91.25
2019-05-18T02:21:39.554Z,90.89
2019-05-18T02:22:39.545Z,91.04
2019-05-18T02:23:39.527Z,91.04
2019-05-18T02:24:39.536Z,91.51
2019-05-18T02:25:39.536Z,91.25
2019-05-18T02:26:39.510Z,91.25
2019-05-18T02:27:39.483Z,91.35
2019-05-18T02:28:39.474Z,91.45
2019-05-18T02:29:39.480Z,91.14
2019-05-18T02:30:39.446Z,90.89
2019-05-18T02:31:39.473Z,91.35
2019-05-18T02:32:39.425Z,90.94
2019-05-18T02:33:39.424Z,91.20
2019-05-18T02:34:39.426Z,91.25
2019-05-18T02:35:39.388Z,91.14
2019-05-18T02:36:39.381Z,91.55
2019-05-18T02:37:39.383Z,91.31
2019-05-18T02:38:39.386Z,90.73
2019-05-18T02:39:39.357Z,90.83
2019-05-18T02:40:39.333Z,91.35
2019-05-18T02:41:39.321Z,91.45
2019-05-18T02:42:39.312Z,91.04
2019-05-18T02:43:39.348Z,91.35
2019-05-18T02:44:39.298Z,91.14
2019-05-18T02:45:39.281Z,90.94
2019-05-18T02:46:39.259Z,90.94
2019-05-18T02:47:39.263Z,91.25
2019-05-18T02:48:49.609Z,91.55
2019-05-18T02:49:40.229Z,91.35
2019-05-18T02:50:39.247Z,91.25
2019-05-18T02:51:39.204Z,91.35
2019-05-18T02:52:39.194Z,91.45
2019-05-18T02:53:39.211Z,91.45
2019-05-18T02:54:39.177Z,91.35
2019-05-18T02:55:39.187Z,91.25
2019-05-18T02:56:39.176Z,91.25
2019-05-18T02:57:39.147Z,91.35
2019-05-18T02:58:39.148Z,91.66
2019-05-18T02:59:39.120Z,91.76
2019-05-18T03:00:39.117Z,91.25
2019-05-18T03:01:39.105Z,91.25
2019-05-18T03:02:39.167Z,91.25
2019-05-18T03:03:39.069Z,91.04
2019-05-18T03:04:39.066Z,91.35
2019-05-18T03:05:39.051Z,91.35
2019-05-18T03:06:39.043Z,91.25
2019-05-18T03:07:39.069Z,91.55
2019-05-18T03:08:39.039Z,91.35
2019-05-18T03:09:39.007Z,91.66
2019-05-18T03:10:38.996Z,91.70
2019-05-18T03:11:38.988Z,91.25
2019-05-18T03:12:39.005Z,90.94
2019-05-18T03:13:38.991Z,91.55
2019-05-18T03:14:38.968Z,91.14
2019-05-18T03:15:38.936Z,91.25
2019-05-18T03:16:38.924Z,91.45
2019-05-18T03:17:38.952Z,92.07
2019-05-18T03:18:38.936Z,91.39
2019-05-18T03:19:38.900Z,91.35
2019-05-18T03:20:38.920Z,91.45
2019-05-18T03:21:38.871Z,91.35
2019-05-18T03:22:38.863Z,91.39
2019-05-18T03:23:38.873Z,91.97
2019-05-18T03:24:38.835Z,91.86
2019-05-18T03:25:38.822Z,91.91
2019-05-18T03:26:38.836Z,91.76
2019-05-18T03:27:38.815Z,91.97
2019-05-18T03:28:38.817Z,91.86
2019-05-18T03:29:38.787Z,91.80
2019-05-18T03:30:38.775Z,91.35
2019-05-18T03:31:38.761Z,90.98
2019-05-18T03:32:38.822Z,91.60
2019-05-18T03:33:38.741Z,91.29
2019-05-18T03:34:38.725Z,91.29
2019-05-18T03:35:38.759Z,91.70
2019-05-18T03:36:38.700Z,92.21
2019-05-18T03:37:38.728Z,91.91
2019-05-18T03:38:38.703Z,91.49
2019-05-18T03:39:38.668Z,92.01
2019-05-18T03:40:38.658Z,91.39
2019-05-18T03:41:38.650Z,91.39
2019-05-18T03:42:38.670Z,91.29
2019-05-18T03:43:38.644Z,92.01
2019-05-18T03:44:38.612Z,91.91
2019-05-18T03:45:38.600Z,91.91
2019-05-18T03:46:38.623Z,91.70
2019-05-18T03:47:38.589Z,92.21
2019-05-18T03:48:38.567Z,91.80
2019-05-18T03:49:38.580Z,91.39
2019-05-18T03:50:38.571Z,91.60
2019-05-18T03:51:38.568Z,91.80
2019-05-18T03:52:38.518Z,91.39
2019-05-18T03:53:38.504Z,91.29
2019-05-18T03:54:38.530Z,91.14
2019-05-18T03:55:38.507Z,91.39
2019-05-18T03:56:38.479Z,90.88
2019-05-18T03:57:38.469Z,91.60
2019-05-18T03:58:38.457Z,91.29
2019-05-18T03:59:38.471Z,91.49
2019-05-18T04:00:38.424Z,91.29
2019-05-18T04:01:38.477Z,91.80
2019-05-18T04:02:38.423Z,91.39
2019-05-18T04:03:38.401Z,91.66
2019-05-18T04:04:38.378Z,91.60
2019-05-18T04:05:38.394Z,92.01
2019-05-18T04:06:38.388Z,91.66
2019-05-18T04:07:38.391Z,91.76
2019-05-18T04:08:38.335Z,91.60
2019-05-18T04:09:38.334Z,91.91
2019-05-18T04:10:38.333Z,91.97
2019-05-18T04:11:38.337Z,91.45
2019-05-18T04:12:38.293Z,90.67
2019-05-18T04:13:38.327Z,90.73
2019-05-18T04:14:38.278Z,90.73
2019-05-18T04:15:38.256Z,90.67
2019-05-18T04:16:38.274Z,90.88
2019-05-18T04:17:38.238Z,90.53
2019-05-18T04:18:38.231Z,91.45
2019-05-18T04:19:46.217Z,90.98
2019-05-18T04:20:39.201Z,90.94
2019-05-18T04:21:38.217Z,91.04
2019-05-18T04:22:38.179Z,91.14
2019-05-18T04:23:38.173Z,90.83
2019-05-18T04:24:38.161Z,90.32
2019-05-18T04:25:38.170Z,90.42
2019-05-18T04:26:38.164Z,91.04
2019-05-18T04:27:38.126Z,90.83
2019-05-18T04:28:38.114Z,91.04
2019-05-18T04:29:38.100Z,90.73
2019-05-18T04:30:38.083Z,91.25
2019-05-18T04:31:38.130Z,90.83
2019-05-18T04:32:38.069Z,90.01
2019-05-18T04:33:38.085Z,90.42
2019-05-18T04:34:38.046Z,90.53
2019-05-18T04:35:38.132Z,90.42
2019-05-18T04:36:38.055Z,90.22
2019-05-18T04:37:38.084Z,90.28
2019-05-18T04:38:37.995Z,90.32
2019-05-18T04:39:37.987Z,90.28
2019-05-18T04:40:37.984Z,90.48
2019-05-18T04:41:37.990Z,90.38
2019-05-18T04:42:37.986Z,89.36
2019-05-18T04:43:38.008Z,89.04
2019-05-18T04:44:37.931Z,89.46
2019-05-18T04:45:37.920Z,89.09
2019-05-18T04:46:37.905Z,89.87
2019-05-18T04:47:37.910Z,89.25
2019-05-18T04:48:37.933Z,89.56
2019-05-18T04:49:37.904Z,89.50
2019-05-18T04:50:37.889Z,89.36
2019-05-18T04:51:37.866Z,89.15
2019-05-18T04:52:37.860Z,89.56
2019-05-18T04:53:37.839Z,89.46
2019-05-18T04:54:37.827Z,89.56
2019-05-18T04:55:37.855Z,89.46
2019-05-18T04:56:37.797Z,89.15
2019-05-18T04:57:37.824Z,88.33
2019-05-18T04:58:37.784Z,88.74
2019-05-18T04:59:37.773Z,89.36
2019-05-18T05:00:37.796Z,88.53
2019-05-18T05:01:37.738Z,88.74
2019-05-18T05:02:37.729Z,88.33
2019-05-18T05:03:37.736Z,89.04
2019-05-18T05:04:37.713Z,88.53
2019-05-18T05:05:37.692Z,88.53
2019-05-18T05:06:37.702Z,88.74
2019-05-18T05:07:37.676Z,88.84
2019-05-18T05:08:37.689Z,89.66
2019-05-18T05:09:37.658Z,89.36
2019-05-18T05:10:37.910Z,88.95
2019-05-18T05:11:37.663Z,88.53
2019-05-18T05:12:37.617Z,88.64
2019-05-18T05:13:37.612Z,88.43
2019-05-18T05:14:37.590Z,88.64
2019-05-18T05:15:38.315Z,88.23
2019-05-18T05:16:38.284Z,88.53
2019-05-18T05:17:37.557Z,88.64
2019-05-18T05:18:37.537Z,88.39
2019-05-18T05:19:37.551Z,88.29
2019-05-18T05:20:38.320Z,87.77
2019-05-18T05:21:37.537Z,87.98
2019-05-18T05:22:37.602Z,87.77
2019-05-18T05:23:37.499Z,87.57
2019-05-18T05:24:37.558Z,87.46
2019-05-18T05:25:37.490Z,87.73
2019-05-18T05:26:39.417Z,87.22
2019-05-18T05:27:37.463Z,87.63
2019-05-18T05:28:38.273Z,87.84
2019-05-18T05:29:37.424Z,87.84
2019-05-18T05:30:37.444Z,87.63
2019-05-18T05:31:37.403Z,85.99
2019-05-18T05:32:37.397Z,87.53
2019-05-18T05:33:37.379Z,87.43
2019-05-18T05:34:37.366Z,87.22
2019-05-18T05:35:37.937Z,87.84
2019-05-18T05:36:37.347Z,87.28
2019-05-18T05:37:37.410Z,86.36
2019-05-18T05:38:37.319Z,86.25
2019-05-18T05:39:37.321Z,86.15
2019-05-18T05:40:37.320Z,86.46
2019-05-18T05:41:37.320Z,86.36
2019-05-18T05:42:37.276Z,85.85
2019-05-18T05:43:37.293Z,85.95
2019-05-18T05:44:37.253Z,86.05
2019-05-18T05:45:37.245Z,86.15
2019-05-18T05:46:37.587Z,86.57
2019-05-18T05:47:37.245Z,86.05
2019-05-18T05:48:37.243Z,86.05
2019-05-18T05:49:37.204Z,85.23
2019-05-18T05:50:37.178Z,85.09
2019-05-18T05:51:37.170Z,85.03
2019-05-18T05:52:37.167Z,85.03
2019-05-18T05:53:37.187Z,85.33
2019-05-18T05:54:37.157Z,85.64
2019-05-18T05:55:37.126Z,85.33
2019-05-18T05:56:37.119Z,85.03
2019-05-18T05:57:37.112Z,85.85
2019-05-18T05:58:37.150Z,85.74
2019-05-18T05:59:37.097Z,85.85
2019-05-18T06:00:37.077Z,85.44
2019-05-18T06:01:37.065Z,85.23
2019-05-18T06:02:37.129Z,85.33
2019-05-18T06:03:37.072Z,84.88
2019-05-18T06:04:37.027Z,84.99
2019-05-18T06:05:37.052Z,85.80
2019-05-18T06:06:37.001Z,84.68
2019-05-18T06:07:36.995Z,84.88
2019-05-18T06:08:37.031Z,84.78
2019-05-18T06:09:36.975Z,84.47
2019-05-18T06:10:37.028Z,84.17
2019-05-18T06:11:36.984Z,85.60
2019-05-18T06:12:36.943Z,85.39
2019-05-18T06:13:36.942Z,84.95
2019-05-18T06:14:36.916Z,84.03
2019-05-18T06:15:36.908Z,84.03
2019-05-18T06:16:36.960Z,84.53
2019-05-18T06:17:36.985Z,84.74
2019-05-18T06:18:36.880Z,84.27
2019-05-18T06:19:36.867Z,84.58
2019-05-18T06:20:50.481Z,84.06
2019-05-18T06:21:37.880Z,84.82
2019-05-18T06:22:36.923Z,85.13
2019-05-18T06:23:36.817Z,84.99
2019-05-18T06:24:36.869Z,85.30
2019-05-18T06:25:36.804Z,84.37
2019-05-18T06:26:36.788Z,85.60
2019-05-18T06:27:36.767Z,85.60
2019-05-18T06:28:36.763Z,84.17
2019-05-18T06:29:36.780Z,84.47
2019-05-18T06:30:36.765Z,84.47
2019-05-18T06:31:36.722Z,84.64
2019-05-18T06:32:36.709Z,84.95
2019-05-18T06:33:36.710Z,83.82
2019-05-18T06:34:36.715Z,84.37
2019-05-18T06:35:36.685Z,84.95
2019-05-18T06:36:36.691Z,84.64
2019-05-18T06:37:36.658Z,83.92
2019-05-18T06:38:36.648Z,84.23
2019-05-18T06:39:36.666Z,83.41
2019-05-18T06:40:36.623Z,84.33
2019-05-18T06:41:36.613Z,84.19
2019-05-18T06:42:36.600Z,82.48
2019-05-18T06:43:36.603Z,81.99
2019-05-18T06:44:36.618Z,79.57
2019-05-18T06:45:36.561Z,78.41
2019-05-18T06:46:36.561Z,76.19
2019-05-18T06:47:36.545Z,74.66
2019-05-18T06:48:36.556Z,75.48
2019-05-18T06:49:36.532Z,74.86
2019-05-18T06:50:36.562Z,75.64
2019-05-18T06:51:36.535Z,75.60
2019-05-18T06:52:36.517Z,74.76
2019-05-18T06:53:36.483Z,72.75
2019-05-18T06:54:36.492Z,72.55
2019-05-18T06:55:36.463Z,74.38
2019-05-18T06:56:36.469Z,75.44
2019-05-18T06:57:36.473Z,73.23
2019-05-18T06:58:36.424Z,77.34
2019-05-18T06:59:36.468Z,75.48
2019-05-18T07:00:36.403Z,73.94
2019-05-18T07:01:36.389Z,74.79
2019-05-18T07:02:36.398Z,76.09
2019-05-18T07:03:36.363Z,77.27
2019-05-18T07:04:36.356Z,77.24
2019-05-18T07:05:36.362Z,72.24
2019-05-18T07:06:36.327Z,73.91
2019-05-18T07:07:36.358Z,74.11
2019-05-18T07:08:36.310Z,74.45
2019-05-18T07:09:36.304Z,73.94
2019-05-18T07:10:36.289Z,75.68
2019-05-18T07:11:36.333Z,74.21
2019-05-18T07:12:36.271Z,74.15
2019-05-18T07:13:36.283Z,73.84
2019-05-18T07:14:36.247Z,75.16
2019-05-18T07:15:36.229Z,74.62
2019-05-18T07:16:36.219Z,73.88
2019-05-18T07:17:36.245Z,78.16
2019-05-18T07:18:36.228Z,73.40
2019-05-18T07:19:36.190Z,72.62
2019-05-18T07:20:36.187Z,73.47
2019-05-18T07:21:36.187Z,77.34
2019-05-18T07:22:36.152Z,76.25
2019-05-18T07:23:36.179Z,73.97
2019-05-18T07:24:36.125Z,73.16
2019-05-18T07:25:36.124Z,73.84
2019-05-18T07:26:36.141Z,72.89
2019-05-18T07:27:36.105Z,71.33
2019-05-18T07:28:36.080Z,70.42
2019-05-18T07:29:36.067Z,71.20
2019-05-18T07:30:36.097Z,67.88
2019-05-18T07:31:36.078Z,70.42
2019-05-18T07:32:36.040Z,69.17
2019-05-18T07:33:36.032Z,69.95
2019-05-18T07:34:36.019Z,73.09
2019-05-18T07:35:36.036Z,71.67
2019-05-18T07:36:36.059Z,72.55
2019-05-18T07:37:36.012Z,68.66
2019-05-18T07:38:35.968Z,69.37
2019-05-18T07:39:36.243Z,70.05
2019-05-18T07:40:35.954Z,68.02
2019-05-18T07:41:46.346Z,71.44
2019-05-18T07:42:35.952Z,69.17
2019-05-18T07:43:36.918Z,67.45
2019-05-18T07:44:35.911Z,67.35
2019-05-18T07:45:35.893Z,66.20
2019-05-18T07:46:35.913Z,64.78
2019-05-18T07:47:35.879Z,67.78
2019-05-18T07:48:35.898Z,68.89
2019-05-18T07:49:35.852Z,71.77
2019-05-18T07:50:35.857Z,73.57
2019-05-18T07:51:37.370Z,69.70
2019-05-18T07:52:35.813Z,72.55
2019-05-18T07:53:35.803Z,69.30
2019-05-18T07:54:35.830Z,72.58
2019-05-18T07:55:35.970Z,71.50
2019-05-18T07:56:35.785Z,70.99
2019-05-18T07:57:35.766Z,72.86
2019-05-18T07:58:35.790Z,74.48
2019-05-18T07:59:35.752Z,72.99
2019-05-18T08:00:35.791Z,71.94
2019-05-18T08:01:35.719Z,72.75
2019-05-18T08:02:35.704Z,70.18
2019-05-18T08:03:35.688Z,70.08
2019-05-18T08:04:35.778Z,67.44
2019-05-18T08:05:35.899Z,69.70
2019-05-18T08:06:35.664Z,69.50
2019-05-18T08:07:35.651Z,71.03
2019-05-18T08:08:35.701Z,70.42
2019-05-18T08:09:35.626Z,71.77
2019-05-18T08:10:35.645Z,71.77
2019-05-18T08:11:35.634Z,73.93
2019-05-18T08:12:35.591Z,73.90
2019-05-18T08:13:35.594Z,68.80
2019-05-18T08:14:35.612Z,66.37
2019-05-18T08:15:35.597Z,67.65
2019-05-18T08:16:35.628Z,70.92
2019-05-18T08:17:35.536Z,69.47
2019-05-18T08:18:35.565Z,66.86
2019-05-18T08:19:35.529Z,69.09
2019-05-18T08:20:35.506Z,71.20
2019-05-18T08:21:35.529Z,71.43
2019-05-18T08:22:36.327Z,71.50
2019-05-18T08:23:35.466Z,70.25
2019-05-18T08:24:35.496Z,72.45
2019-05-18T08:25:35.445Z,67.47
2019-05-18T08:26:35.436Z,69.98
2019-05-18T08:27:35.489Z,70.25
2019-05-18T08:28:35.461Z,69.57
2019-05-18T08:29:35.406Z,68.90
2019-05-18T08:30:35.397Z,67.47
2019-05-18T08:31:35.389Z,68.87
2019-05-18T08:32:35.472Z,70.56
2019-05-18T08:33:35.427Z,67.61
2019-05-18T08:34:35.371Z,66.77
2019-05-18T08:35:35.352Z,67.24
2019-05-18T08:36:35.321Z,71.03
2019-05-18T08:37:35.312Z,69.47
2019-05-18T08:38:35.371Z,67.10
2019-05-18T08:39:35.290Z,68.96
2019-05-18T08:40:35.285Z,70.08
2019-05-18T08:41:35.297Z,69.06
2019-05-18T08:42:35.278Z,68.79
2019-05-18T08:43:35.267Z,69.74
2019-05-18T08:44:35.225Z,70.75
2019-05-18T08:45:35.226Z,72.82
2019-05-18T08:46:35.865Z,72.48
2019-05-18T08:47:35.283Z,68.79
2019-05-18T08:48:35.192Z,69.57
2019-05-18T08:49:35.176Z,70.96
2019-05-18T08:50:35.168Z,68.90
2019-05-18T08:51:35.197Z,67.18
2019-05-18T08:52:35.240Z,66.60
2019-05-18T08:53:35.133Z,66.36
2019-05-18T08:54:35.118Z,68.01
2019-05-18T08:55:35.140Z,68.73
2019-05-18T08:56:35.105Z,70.01
2019-05-18T08:57:35.837Z,69.98
2019-05-18T08:58:35.136Z,68.63
2019-05-18T08:59:35.073Z,66.88
2019-05-18T09:00:35.091Z,67.48
2019-05-18T09:01:35.045Z,68.77
2019-05-18T09:02:35.057Z,64.61
2019-05-18T09:03:35.036Z,66.88
2019-05-18T09:04:35.018Z,70.52
2019-05-18T09:05:35.042Z,67.25
2019-05-18T09:06:34.991Z,65.22
2019-05-18T09:07:34.981Z,66.43
2019-05-18T09:08:34.975Z,67.95
2019-05-18T09:09:34.954Z,69.17
2019-05-18T09:10:34.970Z,67.17
2019-05-18T09:11:34.951Z,68.76
2019-05-18T09:12:34.915Z,69.64
2019-05-18T09:13:34.909Z,67.21
2019-05-18T09:14:34.889Z,68.43
2019-05-18T09:15:34.925Z,67.55
2019-05-18T09:16:34.876Z,69.07
2019-05-18T09:17:34.886Z,71.06
2019-05-18T09:18:34.847Z,67.68
2019-05-18T09:19:34.880Z,69.88
2019-05-18T09:20:35.007Z,66.81
2019-05-18T09:21:34.821Z,66.88
2019-05-18T09:22:34.833Z,65.56
2019-05-18T09:23:34.793Z,66.10
2019-05-18T09:24:34.787Z,65.16
2019-05-18T09:25:34.836Z,68.50
2019-05-18T09:26:34.760Z,66.98
2019-05-18T09:27:34.748Z,68.60
2019-05-18T09:28:34.759Z,66.67
2019-05-18T09:29:34.733Z,64.52
2019-05-18T09:30:34.798Z,64.48
2019-05-18T09:31:34.707Z,65.12
2019-05-18T09:32:34.698Z,66.24
2019-05-18T09:33:34.691Z,64.44
2019-05-18T09:34:34.671Z,68.80
2019-05-18T09:35:34.739Z,69.07
2019-05-18T09:36:34.713Z,67.05
2019-05-18T09:37:37.861Z,69.85
2019-05-18T09:38:34.638Z,66.07
2019-05-18T09:39:34.622Z,67.15
2019-05-18T09:40:36.413Z,65.22
2019-05-18T09:41:34.620Z,67.25
2019-05-18T09:42:34.573Z,69.14
2019-05-18T09:43:34.593Z,68.53
2019-05-18T09:44:34.821Z,68.70
2019-05-18T09:45:34.553Z,64.93
2019-05-18T09:46:34.562Z,65.06
2019-05-18T09:47:34.556Z,66.17
2019-05-18T09:48:34.536Z,65.67
2019-05-18T09:49:34.537Z,67.76
2019-05-18T09:50:34.503Z,65.13
2019-05-18T09:51:34.482Z,64.58
2019-05-18T09:52:45.047Z,66.71
2019-05-18T09:53:35.475Z,68.40
2019-05-18T09:54:34.464Z,65.42
2019-05-18T09:55:34.448Z,68.66
2019-05-18T09:56:34.448Z,67.96
2019-05-18T09:57:34.437Z,67.52
2019-05-18T09:58:35.338Z,66.30
2019-05-18T09:59:34.406Z,67.01
2019-05-18T10:00:38.582Z,66.30
2019-05-18T10:01:34.381Z,66.98
2019-05-18T10:02:34.388Z,66.38
2019-05-18T10:03:34.407Z,65.77
2019-05-18T10:04:34.355Z,68.60
2019-05-18T10:05:34.329Z,66.24
2019-05-18T10:06:34.323Z,65.26
2019-05-18T10:07:34.399Z,65.96
2019-05-18T10:08:34.295Z,68.90
2019-05-18T10:09:39.331Z,68.36
2019-05-18T10:10:34.282Z,68.33
2019-05-18T10:11:38.362Z,69.01
2019-05-18T10:12:34.302Z,71.91
2019-05-18T10:13:34.244Z,64.90
2019-05-18T10:14:34.231Z,66.78
2019-05-18T10:15:34.223Z,66.17
2019-05-18T10:16:34.204Z,65.87
2019-05-18T10:17:34.226Z,65.16
2019-05-18T10:18:34.189Z,66.64
2019-05-18T10:19:34.162Z,66.41
2019-05-18T10:20:34.197Z,63.92
2019-05-18T10:21:34.182Z,66.00
2019-05-18T10:22:34.182Z,66.10
2019-05-18T10:23:34.124Z,66.24
2019-05-18T10:24:34.112Z,67.08
2019-05-18T10:25:34.104Z,67.45
2019-05-18T10:26:34.090Z,70.59
2019-05-18T10:27:34.151Z,67.32
2019-05-18T10:28:34.069Z,66.61
2019-05-18T10:29:34.068Z,66.33
2019-05-18T10:30:34.039Z,66.61
2019-05-18T10:31:34.031Z,66.00
2019-05-18T10:32:34.048Z,66.91
2019-05-18T10:33:34.039Z,66.91
2019-05-18T10:34:34.004Z,65.93
2019-05-18T10:35:34.010Z,67.14
2019-05-18T10:36:33.988Z,66.94
2019-05-18T10:37:33.972Z,67.89
2019-05-18T10:38:34.028Z,66.53
2019-05-18T10:39:34.001Z,69.40
2019-05-18T10:40:33.930Z,68.70
2019-05-18T10:41:33.951Z,69.51
2019-05-18T10:42:33.911Z,70.08
2019-05-18T10:43:33.904Z,68.49
2019-05-18T10:44:33.888Z,68.26
2019-05-18T10:45:33.914Z,68.33
2019-05-18T10:46:33.893Z,69.58
2019-05-18T10:47:33.882Z,66.64
2019-05-18T10:48:33.850Z,66.44
2019-05-18T10:49:33.837Z,66.21
2019-05-18T10:50:33.829Z,67.09
2019-05-18T10:51:33.843Z,68.91
2019-05-18T10:52:33.794Z,67.02
2019-05-18T10:53:33.827Z,65.14
2019-05-18T10:54:33.819Z,66.38
2019-05-18T10:55:33.773Z,66.64
2019-05-18T10:56:33.779Z,67.49
2019-05-18T10:57:33.749Z,66.64
2019-05-18T10:58:33.729Z,67.35
2019-05-18T10:59:33.763Z,65.64
2019-05-18T11:00:33.718Z,65.09
2019-05-18T11:01:33.729Z,65.96
2019-05-18T11:02:33.690Z,67.34
2019-05-18T11:03:33.688Z,67.95
2019-05-18T11:04:33.691Z,69.95
2019-05-18T11:05:33.652Z,69.31
2019-05-18T11:06:33.643Z,70.01
2019-05-18T11:07:33.750Z,71.67
2019-05-18T11:08:33.623Z,67.32
2019-05-18T11:09:33.626Z,66.71
2019-05-18T11:10:33.623Z,66.71
2019-05-18T11:11:33.586Z,69.01
2019-05-18T11:12:33.597Z,66.58
2019-05-18T11:13:33.578Z,67.39
2019-05-18T11:14:33.553Z,69.48
2019-05-18T11:15:33.582Z,67.52
2019-05-18T11:16:33.587Z,64.26
2019-05-18T11:17:33.567Z,63.05
2019-05-18T11:18:33.521Z,68.17
2019-05-18T11:19:33.495Z,64.43
2019-05-18T11:20:33.523Z,66.02
2019-05-18T11:21:33.502Z,66.32
2019-05-18T11:22:33.499Z,63.67
2019-05-18T11:23:43.108Z,66.19
2019-05-18T11:24:34.455Z,66.12
2019-05-18T11:25:33.464Z,66.82
2019-05-18T11:26:33.440Z,62.21
2019-05-18T11:27:33.410Z,63.68
2019-05-18T11:28:33.440Z,64.49
2019-05-18T11:29:33.407Z,65.20
2019-05-18T11:30:33.416Z,66.14
2019-05-18T11:31:33.366Z,65.30
2019-05-18T11:32:33.364Z,65.07
2019-05-18T11:33:33.400Z,65.75
2019-05-18T11:34:33.330Z,67.02
2019-05-18T11:35:33.347Z,60.77
2019-05-18T11:36:36.395Z,64.10
2019-05-18T11:37:33.343Z,62.34
2019-05-18T11:38:33.281Z,66.78
2019-05-18T11:39:33.279Z,65.07
2019-05-18T11:40:33.313Z,63.92
2019-05-18T11:41:33.294Z,66.24
2019-05-18T11:42:33.283Z,66.61
2019-05-18T11:43:33.233Z,62.98
2019-05-18T11:44:33.293Z,63.92
2019-05-18T11:45:33.210Z,66.24
2019-05-18T11:46:33.200Z,70.36
2019-05-18T11:47:38.560Z,68.80
2019-05-18T11:48:33.173Z,61.88
2019-05-18T11:49:33.170Z,62.68
2019-05-18T11:50:33.151Z,65.01
2019-05-18T11:51:33.452Z,64.78
2019-05-18T11:52:33.185Z,65.68
2019-05-18T11:53:33.124Z,63.03
2019-05-18T11:54:33.121Z,63.93
2019-05-18T11:55:33.122Z,65.52
2019-05-18T11:56:33.078Z,67.40
2019-05-18T11:57:33.421Z,64.25
2019-05-18T11:58:33.057Z,63.31
2019-05-18T11:59:33.058Z,62.98
2019-05-18T12:00:33.244Z,58.86
2019-05-18T12:01:33.044Z,60.35
2019-05-18T12:02:33.019Z,60.15
2019-05-18T12:03:33.112Z,61.69
2019-05-18T12:04:33.016Z,63.90
2019-05-18T12:05:32.991Z,66.39
2019-05-18T12:06:33.013Z,61.36
2019-05-18T12:07:32.968Z,61.63
2019-05-18T12:08:32.960Z,58.03
2019-05-18T12:09:32.981Z,62.09
2019-05-18T12:10:32.936Z,63.37
2019-05-18T12:11:32.913Z,64.95
2019-05-18T12:12:32.909Z,63.31
2019-05-18T12:13:32.894Z,64.36
2019-05-18T12:14:34.420Z,63.25
2019-05-18T12:15:33.031Z,59.47
2019-05-18T12:16:33.040Z,59.58
2019-05-18T12:17:32.850Z,57.19
2019-05-18T12:18:32.859Z,58.27
2019-05-18T12:19:32.822Z,59.88
2019-05-18T12:20:32.849Z,56.54
2019-05-18T12:21:32.810Z,58.24
2019-05-18T12:22:32.822Z,59.22
2019-05-18T12:23:32.791Z,59.79
2019-05-18T12:24:32.806Z,55.98
2019-05-18T12:25:32.764Z,55.20
2019-05-18T12:26:32.767Z,58.09
2019-05-18T12:27:32.752Z,58.76
2019-05-18T12:28:32.756Z,56.26
2019-05-18T12:29:32.717Z,59.64
2019-05-18T12:30:32.902Z,57.20
2019-05-18T12:31:32.707Z,57.30
2019-05-18T12:32:32.682Z,58.11
2019-05-18T12:33:32.724Z,51.21
2019-05-18T12:34:32.660Z,53.45
2019-05-18T12:35:32.659Z,52.64
2019-05-18T12:36:32.703Z,54.88
2019-05-18T12:37:32.644Z,55.53
2019-05-18T12:38:32.618Z,55.68
2019-05-18T12:39:32.659Z,59.58
2019-05-18T12:40:32.602Z,55.26
2019-05-18T12:41:32.592Z,54.75
2019-05-18T12:42:32.576Z,54.68
2019-05-18T12:43:32.632Z,56.31
2019-05-18T12:44:32.555Z,56.01
2019-05-18T12:45:32.604Z,55.81
2019-05-18T12:46:32.533Z,62.05
2019-05-18T12:47:34.420Z,56.51
2019-05-18T12:48:32.507Z,58.70
2019-05-18T12:49:32.545Z,57.57
2019-05-18T12:50:32.491Z,56.93
2019-05-18T12:51:32.473Z,57.11
2019-05-18T12:52:32.480Z,54.65